Time;durP1;ratioP1;P1;durP2;ratioP2;P2;SDS_P1;SDS_P2;PMS_P1;PMS_P2;Temp;Humidity;BMP_temperature;BMP_pressure;BME280_temperature;BME280_humidity;BME280_pressure;Samples;Min_cycle;Max_cycle;Signal;HPM_P1;HPM_P2
2024/04/08 00:01:45;;;;;;;6.43;2.13;;;;;;;14.72;100.00;100571.94;4958159;28;20469;-84
2024/04/08 00:04:11;;;;;;;4.88;2.20;;;;;;;14.73;100.00;100554.34;4976464;28;20126;-86
2024/04/08 00:06:38;;;;;;;4.13;2.33;;;;;;;14.79;100.00;100555.97;4972276;28;20046;-85
2024/04/08 00:09:03;;;;;;;5.00;2.20;;;;;;;14.79;100.00;100556.81;4957894;28;20050;-86
2024/04/08 00:11:30;;;;;;;4.85;1.95;;;;;;;14.77;100.00;100550.75;4972666;28;20042;-86
2024/04/08 00:13:56;;;;;;;3.50;1.80;;;;;;;14.72;100.00;100555.28;4957749;28;20145;-87
2024/04/08 00:16:23;;;;;;;7.32;3.08;;;;;;;14.70;100.00;100542.13;4953990;28;20522;-86
2024/04/08 00:18:50;;;;;;;3.28;1.42;;;;;;;14.81;100.00;100533.06;4959257;28;20141;-86
2024/04/08 00:21:17;;;;;;;4.93;2.90;;;;;;;14.83;100.00;100541.81;4972115;28;20062;-87
2024/04/08 00:23:43;;;;;;;9.20;1.85;;;;;;;14.89;100.00;100539.00;4957091;28;20042;-86
2024/04/08 00:26:10;;;;;;;5.28;1.80;;;;;;;14.91;100.00;100520.50;4953889;28;20573;-84
2024/04/08 00:28:37;;;;;;;1.85;1.35;;;;;;;14.93;100.00;100524.81;4978400;28;20049;-85
2024/04/08 00:31:10;;;;;;;2.25;1.75;;;;;;;14.94;100.00;100508.09;4973210;28;20051;-85
2024/04/08 00:33:36;;;;;;;13.57;2.47;;;;;;;14.86;100.00;100489.00;4955893;28;20029;-87
2024/04/08 00:36:04;;;;;;;3.67;1.85;;;;;;;14.86;100.00;100494.25;4961645;28;20047;-85
2024/04/08 00:38:30;;;;;;;1.70;1.33;;;;;;;14.85;100.00;100501.31;4957848;28;20043;-85
2024/04/08 00:41:02;;;;;;;5.30;3.00;;;;;;;14.88;100.00;100503.00;4958248;28;20495;-85
2024/04/08 00:43:28;;;;;;;2.15;1.92;;;;;;;14.93;100.00;100509.00;4959934;28;20525;-86
2024/04/08 00:45:55;;;;;;;2.85;1.67;;;;;;;14.92;100.00;100503.78;4957029;28;20034;-86
2024/04/08 00:48:21;;;;;;;4.93;1.70;;;;;;;14.95;100.00;100504.53;4958345;28;20034;-86
2024/04/08 00:50:50;;;;;;;4.25;1.70;;;;;;;14.97;100.00;100491.34;4956804;28;20039;-87
2024/04/08 00:53:16;;;;;;;2.65;1.52;;;;;;;14.93;100.00;100485.28;4967042;28;20114;-85
2024/04/08 00:55:45;;;;;;;2.10;1.50;;;;;;;14.89;100.00;100481.03;4952919;28;20131;-86
2024/04/08 00:58:12;;;;;;;3.15;1.80;;;;;;;14.92;100.00;100480.91;4953591;28;20051;-87
2024/04/08 01:00:39;;;;;;;2.92;1.85;;;;;;;14.91;100.00;100484.44;4938819;28;20042;-86
2024/04/08 01:03:06;;;;;;;3.65;1.45;;;;;;;14.93;100.00;100497.59;4954992;28;20105;-85
2024/04/08 01:05:33;;;;;;;5.82;2.90;;;;;;;14.94;100.00;100509.84;4954197;28;20054;-85
2024/04/08 01:07:59;;;;;;;5.05;2.38;;;;;;;14.94;100.00;100505.47;4953413;28;20051;-85
2024/04/08 01:10:26;;;;;;;3.83;1.83;;;;;;;14.93;100.00;100465.94;4958365;28;20057;-85
2024/04/08 01:12:52;;;;;;;6.05;2.45;;;;;;;14.76;100.00;100456.78;4953853;28;20495;-86
2024/04/08 01:15:22;;;;;;;4.13;1.77;;;;;;;14.82;100.00;100487.38;4965967;28;20054;-84
2024/04/08 01:17:49;;;;;;;5.22;1.77;;;;;;;14.76;100.00;100498.97;4945688;28;20119;-85
2024/04/08 01:20:19;;;;;;;6.30;2.30;;;;;;;14.79;100.00;100492.72;4955404;28;20040;-85
2024/04/08 01:22:48;;;;;;;5.10;2.10;;;;;;;14.80;100.00;100487.41;4940600;28;20062;-85
2024/04/08 01:25:15;;;;;;;3.13;2.08;;;;;;;14.80;100.00;100505.88;4956686;28;20094;-85
2024/04/08 01:27:41;;;;;;;3.15;1.92;;;;;;;14.77;100.00;100508.59;4971810;28;20125;-85
2024/04/08 01:30:11;;;;;;;2.80;1.77;;;;;;;14.81;100.00;100491.78;4916368;28;20043;-85
2024/04/08 01:32:37;;;;;;;5.90;2.35;;;;;;;14.85;100.00;100497.84;4951700;28;20046;-86
2024/04/08 01:35:04;;;;;;;5.50;2.00;;;;;;;14.84;100.00;100515.41;4972118;28;20052;-86
2024/04/08 01:37:30;;;;;;;4.78;2.40;;;;;;;14.78;100.00;100506.81;4969487;28;20043;-86
2024/04/08 01:39:57;;;;;;;4.97;1.95;;;;;;;14.78;100.00;100517.34;4969168;28;20403;-86
2024/04/08 01:42:23;;;;;;;3.88;2.38;;;;;;;14.76;100.00;100525.31;4958044;28;20649;-85
2024/04/08 01:44:51;;;;;;;4.03;2.78;;;;;;;14.78;100.00;100526.09;4972562;28;20050;-86
2024/04/08 01:47:16;;;;;;;5.38;1.77;;;;;;;14.80;100.00;100519.03;4955893;28;20047;-85
2024/04/08 01:49:43;;;;;;;5.20;2.20;;;;;;;14.82;100.00;100518.97;4956030;28;20134;-85
2024/04/08 01:52:11;;;;;;;6.35;1.98;;;;;;;14.76;100.00;100525.31;4972996;28;20196;-85
2024/04/08 01:54:38;;;;;;;3.55;1.95;;;;;;;16.34;100.00;100529.16;4961752;28;20103;-85
2024/04/08 01:57:04;;;;;;;6.35;1.88;;;;;;;16.02;100.00;100519.69;4972924;28;20137;-85
2024/04/08 01:59:31;;;;;;;2.67;1.45;;;;;;;15.85;100.00;100531.69;4959549;28;20600;-83
2024/04/08 02:01:57;;;;;;;3.35;2.03;;;;;;;15.53;100.00;100546.75;4961945;28;20134;-85
2024/04/08 02:04:23;;;;;;;5.43;2.10;;;;;;;15.43;100.00;100529.47;4960369;28;20043;-85
2024/04/08 02:06:49;;;;;;;2.80;1.95;;;;;;;15.47;100.00;100530.25;4957256;28;20051;-86
2024/04/08 02:09:18;;;;;;;3.00;1.95;;;;;;;15.30;100.00;100558.00;4958795;28;20078;-85
2024/04/08 02:11:43;;;;;;;3.70;1.95;;;;;;;15.25;100.00;100541.44;4967149;28;20074;-86
2024/04/08 02:14:10;;;;;;;6.75;2.28;;;;;;;15.35;100.00;100558.72;4955935;28;20138;-85
2024/04/08 02:16:36;;;;;;;4.75;2.30;;;;;;;15.24;100.00;100562.59;4975491;28;20051;-85
2024/04/08 02:19:02;;;;;;;5.50;2.60;;;;;;;15.28;100.00;100572.13;4956069;28;20062;-85
2024/04/08 02:21:28;;;;;;;2.80;2.33;;;;;;;15.15;100.00;100580.41;4940411;28;20246;-85
2024/04/08 02:23:54;;;;;;;4.15;2.35;;;;;;;15.12;100.00;100590.19;4955994;28;20042;-85
2024/04/08 02:26:24;;;;;;;6.22;1.58;;;;;;;15.08;100.00;100601.72;4957092;28;20058;-86
2024/04/08 02:28:51;;;;;;;4.47;1.92;;;;;;;14.95;100.00;100586.25;4948043;28;20419;-84
2024/04/08 02:31:16;;;;;;;3.72;2.17;;;;;;;14.76;100.00;100607.00;4972586;28;20047;-85
2024/04/08 02:33:47;;;;;;;2.67;1.67;;;;;;;14.56;100.00;100597.81;4955356;28;20044;-84
2024/04/08 02:36:13;;;;;;;3.00;2.00;;;;;;;14.40;100.00;100596.47;4958570;28;20039;-84
2024/04/08 02:38:39;;;;;;;3.20;2.15;;;;;;;14.46;100.00;100622.66;4957871;28;20061;-85
2024/04/08 02:41:05;;;;;;;6.03;2.45;;;;;;;14.33;100.00;100590.50;4956424;28;20039;-84
2024/04/08 02:43:38;;;;;;;2.13;1.60;;;;;;;14.28;100.00;100550.25;4950756;28;20048;-84
2024/04/08 02:46:03;;;;;;;3.28;1.90;;;;;;;14.20;100.00;100531.19;4946227;28;20082;-83
2024/04/08 02:48:30;;;;;;;6.50;2.25;;;;;;;14.14;100.00;100529.56;4953688;28;20075;-86
2024/04/08 02:50:56;;;;;;;6.40;2.40;;;;;;;14.16;100.00;100532.16;4972751;28;20085;-85
2024/04/08 02:53:22;;;;;;;7.13;3.00;;;;;;;14.21;100.00;100544.28;4972704;28;20074;-84
2024/04/08 02:55:48;;;;;;;3.65;2.50;;;;;;;13.95;100.00;100539.69;4968277;28;20110;-85
2024/04/08 02:58:15;;;;;;;10.48;2.72;;;;;;;13.96;100.00;100543.19;4941999;28;20092;-85
2024/04/08 03:00:40;;;;;;;5.10;2.45;;;;;;;14.01;100.00;100531.63;4939298;28;20102;-86
2024/04/08 03:03:07;;;;;;;3.17;2.40;;;;;;;14.07;100.00;100526.22;4974790;28;20495;-86
2024/04/08 03:05:33;;;;;;;2.00;1.77;;;;;;;14.00;100.00;100529.03;4958878;28;20049;-87
2024/04/08 03:08:00;;;;;;;7.40;2.42;;;;;;;14.01;100.00;100530.78;4956277;28;20047;-86
2024/04/08 03:10:25;;;;;;;4.45;2.28;;;;;;;14.05;100.00;100530.66;4952489;28;20062;-86
2024/04/08 03:12:53;;;;;;;4.13;2.70;;;;;;;14.01;100.00;100523.72;4965628;28;20043;-86
2024/04/08 03:15:21;;;;;;;3.17;1.75;;;;;;;14.04;100.00;100512.25;4955741;28;20308;-85
2024/04/08 03:17:50;;;;;;;3.50;1.98;;;;;;;14.00;100.00;100503.59;4953021;28;20077;-85
2024/04/08 03:20:16;;;;;;;4.07;1.55;;;;;;;13.75;100.00;100495.44;4961824;28;20059;-87
2024/04/08 03:22:46;;;;;;;8.13;2.13;;;;;;;13.81;100.00;100484.78;4947108;28;20066;-86
2024/04/08 03:25:12;;;;;;;4.70;2.00;;;;;;;13.70;100.00;100479.78;4952859;28;20062;-87
2024/04/08 03:27:41;;;;;;;3.83;1.60;;;;;;;13.65;100.00;100483.41;4947886;28;20063;-84
2024/04/08 03:30:12;;;;;;;3.03;1.42;;;;;;;13.65;100.00;100459.75;4943057;29;20064;-87
2024/04/08 03:32:38;;;;;;;6.78;1.98;;;;;;;13.71;100.00;100470.13;4958287;28;20049;-85
2024/04/08 03:35:04;;;;;;;5.28;1.52;;;;;;;13.82;100.00;100469.84;4984267;28;20070;-86
2024/04/08 03:37:31;;;;;;;2.30;1.30;;;;;;;13.81;100.00;100476.88;4944403;28;20203;-86
2024/04/08 03:39:57;;;;;;;4.05;2.33;;;;;;;13.92;100.00;100478.38;4949337;28;20523;-85
2024/04/08 03:42:24;;;;;;;5.38;1.48;;;;;;;13.95;100.00;100476.53;4960053;28;20074;-86
2024/04/08 03:44:52;;;;;;;7.28;2.05;;;;;;;13.93;100.00;100475.69;4960824;28;20047;-86
2024/04/08 03:47:20;;;;;;;3.80;1.83;;;;;;;13.87;100.00;100473.22;4975419;28;20055;-88
2024/04/08 03:49:47;;;;;;;6.65;2.67;;;;;;;13.90;100.00;100471.38;4957988;28;20047;-87
2024/04/08 03:52:22;;;;;;;3.88;1.70;;;;;;;13.97;100.00;100474.72;4961455;28;20059;-87
2024/04/08 03:54:47;;;;;;;4.50;1.75;;;;;;;13.84;100.00;100475.94;4963798;28;20043;-86
2024/04/08 03:57:16;;;;;;;3.72;1.33;;;;;;;13.85;100.00;100483.78;4978860;28;20119;-87
2024/04/08 03:59:46;;;;;;;3.67;1.73;;;;;;;13.85;100.00;100486.41;4968805;28;20066;-86
2024/04/08 04:02:15;;;;;;;6.75;1.88;;;;;;;13.88;100.00;100494.25;4964087;28;20035;-86
2024/04/08 04:04:43;;;;;;;3.55;1.92;;;;;;;13.85;100.00;100486.41;4968132;28;20047;-86
2024/04/08 04:07:13;;;;;;;3.85;1.63;;;;;;;13.87;100.00;100479.38;4948942;28;20071;-86
2024/04/08 04:09:39;;;;;;;7.55;1.17;;;;;;;13.80;100.00;100483.03;4976636;28;20054;-87
2024/04/08 04:12:06;;;;;;;1.67;1.55;;;;;;;13.79;100.00;100475.19;4957721;28;20047;-88
2024/04/08 04:14:33;;;;;;;2.42;1.50;;;;;;;13.81;100.00;100474.25;4975057;28;20070;-86
2024/04/08 04:16:59;;;;;;;4.68;1.55;;;;;;;13.89;100.00;100471.44;4958934;28;20322;-87
2024/04/08 04:19:25;;;;;;;2.78;1.50;;;;;;;13.93;100.00;100473.06;4955438;28;20118;-86
2024/04/08 04:21:53;;;;;;;4.85;2.08;;;;;;;13.94;100.00;100473.97;4964763;28;20058;-86
2024/04/08 04:24:18;;;;;;;5.28;1.67;;;;;;;13.86;100.00;100484.69;4956725;28;20488;-85
2024/04/08 04:26:47;;;;;;;3.08;1.67;;;;;;;13.83;100.00;100488.25;4960161;28;20115;-86
2024/04/08 04:29:14;;;;;;;5.05;2.25;;;;;;;13.89;100.00;100501.22;4957320;28;20069;-85
2024/04/08 04:31:45;;;;;;;3.05;1.67;;;;;;;13.93;100.00;100498.53;4958467;28;20047;-85
2024/04/08 04:34:10;;;;;;;4.05;1.50;;;;;;;14.00;100.00;100506.25;4943838;28;20156;-84
2024/04/08 04:36:37;;;;;;;3.25;1.85;;;;;;;13.99;100.00;100514.19;4952329;28;20070;-83
2024/04/08 04:39:03;;;;;;;5.60;1.23;;;;;;;13.89;100.00;100495.97;4955750;28;20047;-85
2024/04/08 04:41:30;;;;;;;2.35;1.58;;;;;;;13.98;100.00;100486.13;4952218;28;20472;-84
2024/04/08 04:43:56;;;;;;;4.85;1.55;;;;;;;14.12;100.00;100496.28;4968621;28;20047;-85
2024/04/08 04:46:23;;;;;;;3.90;2.20;;;;;;;14.20;100.00;100495.19;4957669;28;20051;-84
2024/04/08 04:48:51;;;;;;;3.15;1.83;;;;;;;14.20;100.00;100487.28;4966741;28;20052;-85
2024/04/08 04:51:20;;;;;;;2.67;2.25;;;;;;;14.10;100.00;100488.41;4943215;28;20048;-84
2024/04/08 04:53:45;;;;;;;5.10;2.05;;;;;;;14.13;100.00;100488.34;4940665;28;20039;-86
2024/04/08 04:56:16;;;;;;;4.75;2.30;;;;;;;14.17;100.00;100479.47;4958139;28;20279;-86
2024/04/08 04:58:51;;;;;;;5.93;2.95;;;;;;;14.21;100.00;100470.59;4958361;28;20074;-86
2024/04/08 05:01:21;;;;;;;7.13;2.50;;;;;;;14.20;100.00;100454.84;4957449;28;20110;-85
2024/04/08 05:03:47;;;;;;;5.57;2.35;;;;;;;14.13;100.00;100440.09;4952984;28;20039;-84
2024/04/08 05:06:16;;;;;;;5.38;3.03;;;;;;;14.18;100.00;100446.97;4939311;28;20542;-85
2024/04/08 05:08:41;;;;;;;5.82;2.70;;;;;;;14.15;100.00;100449.69;4938614;28;20108;-84
2024/04/08 05:11:08;;;;;;;6.68;2.17;;;;;;;14.19;100.00;100448.69;4973555;28;20051;-85
2024/04/08 05:13:34;;;;;;;4.28;2.38;;;;;;;14.20;100.00;100434.63;4968873;28;20043;-86
2024/04/08 05:16:02;;;;;;;6.70;2.97;;;;;;;14.17;100.00;100432.09;4951536;28;20042;-84
2024/04/08 05:18:30;;;;;;;4.03;1.73;;;;;;;14.16;100.00;100430.34;4958801;28;20090;-85
2024/04/08 05:20:57;;;;;;;4.40;1.88;;;;;;;14.14;100.00;100415.50;4948079;28;20050;-86
2024/04/08 05:23:25;;;;;;;2.60;2.25;;;;;;;13.98;100.00;100400.13;4951900;28;20035;-86
2024/04/08 05:25:56;;;;;;;3.28;1.55;;;;;;;13.90;100.00;100395.06;4957755;28;20042;-85
2024/04/08 05:28:22;;;;;;;5.05;2.28;;;;;;;13.87;100.00;100391.66;4966491;28;20433;-87
2024/04/08 05:30:55;;;;;;;2.30;1.63;;;;;;;13.96;100.00;100406.34;4994561;28;20039;-87
2024/04/08 05:33:45;;;;;;;6.00;1.65;;;;;;;13.94;100.00;100445.00;4960290;28;20069;-87
2024/04/08 05:36:12;;;;;;;2.33;1.88;;;;;;;14.09;100.00;100456.88;4970083;28;20042;-88
2024/04/08 05:38:44;;;;;;;4.40;1.60;;;;;;;14.04;100.00;100454.34;4982803;28;20042;-87
2024/04/08 05:41:19;;;;;;;4.85;1.33;;;;;;;14.04;100.00;100431.56;4975221;28;20046;-87
2024/04/08 05:43:50;;;;;;;7.00;1.48;;;;;;;14.10;100.00;100416.50;4962911;28;20104;-86
2024/04/08 05:46:19;;;;;;;2.13;1.38;;;;;;;14.16;100.00;100417.19;4971250;28;20121;-85
2024/04/08 05:48:45;;;;;;;2.70;2.13;;;;;;;14.31;100.00;100421.16;4972220;28;20046;-85
2024/04/08 05:51:13;;;;;;;2.72;2.00;;;;;;;14.37;100.00;100428.03;4951314;28;20554;-87
2024/04/08 05:53:41;;;;;;;2.03;1.48;;;;;;;14.36;100.00;100419.25;4964695;28;20051;-84
2024/04/08 05:56:08;;;;;;;3.63;1.67;;;;;;;14.36;100.00;100406.09;4973585;28;20073;-84
2024/04/08 05:58:34;;;;;;;3.85;1.85;;;;;;;14.34;100.00;100385.97;4979872;28;20050;-84
2024/04/08 06:01:01;;;;;;;3.03;2.20;;;;;;;14.33;100.00;100360.56;4977235;28;20078;-83
2024/04/08 06:03:30;;;;;;;4.47;1.80;;;;;;;14.38;100.00;100346.34;4961443;28;20673;-85
2024/04/08 06:05:58;;;;;;;4.32;2.05;;;;;;;14.43;100.00;100342.72;4960416;28;20765;-84
2024/04/08 06:08:24;;;;;;;5.43;2.45;;;;;;;14.50;100.00;100320.56;4955898;28;20046;-85
2024/04/08 06:10:53;;;;;;;5.78;2.60;;;;;;;14.50;100.00;100331.09;4980446;28;20050;-84
2024/04/08 06:13:21;;;;;;;3.80;2.60;;;;;;;14.48;100.00;100340.81;4986300;28;20141;-84
2024/04/08 06:15:47;;;;;;;3.80;1.63;;;;;;;14.66;100.00;100332.38;4947381;28;20055;-84
2024/04/08 06:18:14;;;;;;;2.58;2.13;;;;;;;14.79;100.00;100329.34;4960850;28;20105;-83
2024/04/08 06:20:40;;;;;;;11.98;1.75;;;;;;;14.89;100.00;100336.06;4957641;28;20081;-83
2024/04/08 06:23:06;;;;;;;2.33;1.63;;;;;;;14.84;100.00;100346.75;4943097;28;20089;-82
2024/04/08 06:25:33;;;;;;;5.65;2.05;;;;;;;14.79;100.00;100353.94;4954841;28;20055;-84
2024/04/08 06:28:01;;;;;;;6.28;1.88;;;;;;;14.75;100.00;100360.22;4970071;28;20105;-83
2024/04/08 06:30:28;;;;;;;7.15;2.15;;;;;;;14.86;100.00;100357.22;4958587;28;20082;-84
2024/04/08 06:32:55;;;;;;;2.42;2.03;;;;;;;14.98;100.00;100361.25;4960186;28;20058;-86
2024/04/08 06:35:20;;;;;;;4.43;2.42;;;;;;;15.23;100.00;100361.34;4957798;28;20109;-85
2024/04/08 06:37:47;;;;;;;7.00;2.92;;;;;;;15.30;100.00;100354.06;4942953;28;20506;-85
2024/04/08 06:40:13;;;;;;;2.40;1.50;;;;;;;15.93;100.00;100366.88;4966467;28;20094;-82
2024/04/08 06:42:40;;;;;;;5.47;1.73;;;;;;;16.64;100.00;100369.56;4957131;28;20054;-84
2024/04/08 06:45:09;;;;;;;3.53;1.75;;;;;;;16.78;100.00;100371.63;4965213;28;20498;-84
2024/04/08 06:47:38;;;;;;;3.20;1.85;;;;;;;16.28;100.00;100378.84;4950334;28;20113;-86
2024/04/08 06:50:04;;;;;;;4.13;2.70;;;;;;;15.83;100.00;100361.09;4975812;28;20046;-82
2024/04/08 06:52:30;;;;;;;3.65;1.75;;;;;;;15.97;100.00;100363.22;4978146;28;20433;-84
2024/04/08 06:54:56;;;;;;;3.20;1.42;;;;;;;15.64;100.00;100376.66;4963444;28;21240;-85
2024/04/08 06:57:25;;;;;;;2.75;1.50;;;;;;;15.62;100.00;100386.41;4962887;28;20042;-84
2024/04/08 06:59:51;;;;;;;3.22;1.45;;;;;;;16.14;100.00;100389.00;4976914;28;20065;-84
2024/04/08 07:02:18;;;;;;;5.88;2.38;;;;;;;16.17;100.00;100397.69;4959694;28;20070;-85
2024/04/08 07:04:46;;;;;;;2.10;0.82;;;;;;;15.85;100.00;100401.47;4962548;28;20047;-86
2024/04/08 07:07:13;;;;;;;2.47;1.08;;;;;;;16.08;100.00;100399.81;4962104;28;20047;-85
2024/04/08 07:09:38;;;;;;;1.67;0.88;;;;;;;15.83;100.00;100398.91;4956243;28;20116;-84
2024/04/08 07:12:10;;;;;;;2.17;1.20;;;;;;;15.64;100.00;100388.06;4967056;28;20550;-86
2024/04/08 07:14:36;;;;;;;7.18;2.03;;;;;;;15.80;100.00;100392.81;4964301;28;20049;-85
2024/04/08 07:17:03;;;;;;;6.80;1.67;;;;;;;15.55;100.00;100394.53;4963958;28;20046;-85
2024/04/08 07:19:29;;;;;;;2.40;1.63;;;;;;;15.54;100.00;100387.53;4961076;28;20093;-84
2024/04/08 07:21:57;;;;;;;2.55;1.75;;;;;;;15.09;100.00;100379.38;4961604;28;20057;-85
2024/04/08 07:24:22;;;;;;;4.63;1.83;;;;;;;15.16;100.00;100375.59;4960637;28;20102;-85
2024/04/08 07:26:52;;;;;;;6.35;1.70;;;;;;;15.06;100.00;100372.44;4953679;28;20055;-86
2024/04/08 07:29:17;;;;;;;2.53;1.40;;;;;;;15.21;100.00;100379.84;4983976;28;20077;-85
2024/04/08 07:31:44;;;;;;;3.25;1.55;;;;;;;15.26;100.00;100369.13;4954072;28;20452;-84
2024/04/08 07:34:10;;;;;;;3.35;1.70;;;;;;;15.41;100.00;100367.78;4975156;28;20121;-85
2024/04/08 07:36:36;;;;;;;5.35;2.00;;;;;;;15.18;100.00;100363.25;4952655;28;20410;-85
2024/04/08 07:39:03;;;;;;;7.68;2.90;;;;;;;15.28;100.00;100367.31;4978220;28;20042;-85
2024/04/08 07:41:30;;;;;;;4.43;2.65;;;;;;;15.55;100.00;100375.19;4957974;28;20069;-85
2024/04/08 07:43:56;;;;;;;6.15;2.80;;;;;;;15.67;100.00;100372.16;4957743;28;20039;-85
2024/04/08 07:46:22;;;;;;;5.43;3.20;;;;;;;15.80;100.00;100380.50;4948425;28;20043;-85
2024/04/08 07:48:48;;;;;;;12.43;6.40;;;;;;;15.62;100.00;100370.56;4960585;28;20053;-85
2024/04/08 07:51:18;;;;;;;10.10;5.38;;;;;;;15.72;100.00;100382.53;4961807;28;20047;-84
2024/04/08 07:53:44;;;;;;;4.97;4.47;;;;;;;15.75;100.00;100376.28;4962105;28;20046;-84
2024/04/08 07:56:11;;;;;;;9.75;5.63;;;;;;;15.57;100.00;100385.72;4975527;28;20056;-84
2024/04/08 07:58:36;;;;;;;7.25;6.03;;;;;;;15.68;100.00;100376.53;4942044;28;20046;-85
2024/04/08 08:01:04;;;;;;;12.45;7.05;;;;;;;15.74;100.00;100374.59;4964560;28;20085;-85
2024/04/08 08:03:31;;;;;;;12.93;7.43;;;;;;;15.88;100.00;100369.72;4953529;28;20043;-85
2024/04/08 08:05:58;;;;;;;11.73;7.68;;;;;;;16.13;100.00;100367.03;4962829;28;20137;-84
2024/04/08 08:08:25;;;;;;;10.88;7.72;;;;;;;16.01;100.00;100367.50;4962535;28;20102;-84
2024/04/08 08:13:19;;;;;;;15.85;8.18;;;;;;;16.09;100.00;100381.28;5447263;25;20145;-86
2024/04/08 08:15:59;;;;;;;12.80;9.25;;;;;;;16.17;100.00;100373.91;5406637;26;20000;-90
2024/04/08 08:18:31;;;;;;;12.85;7.88;;;;;;;16.12;100.00;100367.94;5398248;26;20004;-93
2024/04/08 08:21:05;;;;;;;17.85;10.20;;;;;;;16.41;100.00;100362.50;5410416;26;20015;-86
2024/04/08 08:23:34;;;;;;;14.93;9.13;;;;;;;16.85;100.00;100355.47;5394123;26;20129;-85
2024/04/08 08:26:04;;;;;;;9.57;7.40;;;;;;;16.87;100.00;100360.72;5398176;26;20022;-84
2024/04/08 08:28:32;;;;;;;13.88;8.10;;;;;;;16.81;100.00;100353.03;5405865;26;20004;-85
2024/04/08 08:31:01;;;;;;;10.25;7.00;;;;;;;17.34;100.00;100349.16;5385692;21;20005;-83
2024/04/08 08:33:31;;;;;;;14.70;8.38;;;;;;;17.78;100.00;100337.56;5294996;27;20045;-84
2024/04/08 08:36:04;;;;;;;11.68;7.53;;;;;;;18.32;100.00;100340.50;5295372;27;20001;-82
2024/04/08 08:38:30;;;;;;;11.77;7.72;;;;;;;19.60;93.92;100349.34;5296946;27;20170;-85
2024/04/08 08:41:11;;;;;;;10.57;6.93;;;;;;;20.78;78.51;100331.53;5327081;26;20079;-84
2024/04/08 08:43:40;;;;;;;10.38;7.05;;;;;;;19.89;83.90;100341.69;5299061;27;20005;-84
2024/04/08 08:46:09;;;;;;;9.32;7.60;;;;;;;19.36;88.10;100347.00;5348793;26;20009;-84
2024/04/08 08:48:36;;;;;;;11.98;6.78;;;;;;;19.15;88.84;100351.56;5283132;27;20002;-85
2024/04/08 08:51:05;;;;;;;9.85;6.82;;;;;;;19.14;89.02;100347.22;5295369;27;20001;-84
2024/04/08 08:53:31;;;;;;;8.00;7.00;;;;;;;19.55;87.33;100340.75;5296818;27;20012;-84
2024/04/08 08:56:01;;;;;;;11.55;8.10;;;;;;;19.34;87.04;100340.91;5304130;26;20021;-83
2024/04/08 08:58:27;;;;;;;10.93;7.75;;;;;;;19.33;85.63;100339.19;5324094;26;20005;-84
2024/04/08 09:00:57;;;;;;;10.27;7.38;;;;;;;19.16;87.00;100332.06;5310062;26;20005;-84
2024/04/08 09:03:28;;;;;;;9.98;7.65;;;;;;;19.29;85.56;100329.66;5326572;26;20007;-83
2024/04/08 09:05:59;;;;;;;10.50;7.63;;;;;;;19.30;85.30;100321.63;5345569;26;20058;-84
2024/04/08 09:08:24;;;;;;;13.02;8.57;;;;;;;20.03;82.14;100327.66;5357649;26;20456;-84
2024/04/08 09:10:56;;;;;;;11.73;8.80;;;;;;;20.77;76.73;100320.97;5325823;26;20018;-85
2024/04/08 09:13:22;;;;;;;14.80;8.77;;;;;;;21.84;71.84;100314.69;5356507;26;20305;-84
2024/04/08 09:15:52;;;;;;;15.23;7.93;;;;;;;22.74;68.17;100321.47;5362807;26;20023;-84
2024/04/08 09:18:21;;;;;;;13.95;7.53;;;;;;;23.92;63.05;100318.97;5356559;26;20017;-84
2024/04/08 09:20:49;;;;;;;12.15;7.45;;;;;;;24.49;59.71;100312.22;5358437;26;20078;-84
2024/04/08 09:23:15;;;;;;;10.70;8.13;;;;;;;25.20;56.38;100317.72;5351824;26;20510;-83
2024/04/08 09:25:45;;;;;;;8.73;7.80;;;;;;;25.08;54.11;100314.13;5340539;26;20019;-84
2024/04/08 09:28:11;;;;;;;15.38;7.68;;;;;;;25.29;56.13;100310.78;5343480;26;20009;-84
2024/04/08 09:30:41;;;;;;;9.07;7.65;;;;;;;25.24;55.12;100307.63;5338242;26;20005;-86
2024/04/08 09:33:11;;;;;;;13.85;8.98;;;;;;;25.41;55.44;100304.53;5279340;26;20020;-85
2024/04/08 09:35:45;;;;;;;11.40;7.22;;;;;;;25.16;54.44;100304.66;5330417;26;20073;-85
2024/04/08 09:38:22;;;;;;;10.45;7.80;;;;;;;25.45;55.37;100297.09;5319126;26;20039;-84
2024/04/08 09:40:53;;;;;;;9.88;7.38;;;;;;;24.87;56.33;100291.66;5281266;26;20334;-85
2024/04/08 09:43:23;;;;;;;12.93;8.57;;;;;;;25.15;55.20;100289.53;5285153;26;20001;-84
2024/04/08 09:45:52;;;;;;;9.98;8.07;;;;;;;25.76;52.48;100295.56;5279036;26;20802;-84
2024/04/08 09:48:22;;;;;;;12.52;9.07;;;;;;;25.47;54.07;100284.44;5283553;26;20001;-83
2024/04/08 09:50:50;;;;;;;14.25;8.23;;;;;;;25.59;53.32;100287.97;5327298;26;20005;-85
2024/04/08 09:53:18;;;;;;;15.68;8.95;;;;;;;24.74;55.74;100278.31;5279838;26;20006;-84
2024/04/08 09:55:51;;;;;;;13.05;7.43;;;;;;;25.90;54.37;100273.03;5312598;26;20005;-85
2024/04/08 09:58:20;;;;;;;12.10;8.53;;;;;;;26.25;53.01;100279.22;5282441;26;20368;-83
2024/04/08 10:00:47;;;;;;;10.10;7.55;;;;;;;27.16;50.44;100281.63;5306181;26;20291;-84
2024/04/08 10:03:19;;;;;;;14.65;8.88;;;;;;;26.63;50.44;100271.69;5309641;26;20012;-83
2024/04/08 10:05:46;;;;;;;9.80;8.77;;;;;;;26.70;50.52;100276.44;5333901;26;20005;-85
2024/04/08 10:08:18;;;;;;;12.23;10.15;;;;;;;26.69;49.99;100266.66;5310711;26;20005;-83
2024/04/08 10:10:47;;;;;;;13.93;9.00;;;;;;;27.31;49.18;100264.22;5326263;26;20013;-85
2024/04/08 10:13:18;;;;;;;9.70;8.70;;;;;;;28.06;47.90;100256.81;5287060;26;20004;-84
2024/04/08 10:15:44;;;;;;;13.05;8.75;;;;;;;28.01;47.65;100259.03;5311372;26;20002;-86
2024/04/08 10:18:13;;;;;;;12.32;9.18;;;;;;;28.08;47.79;100259.34;5280439;26;20012;-85
2024/04/08 10:20:45;;;;;;;10.55;7.97;;;;;;;29.59;45.12;100250.03;5278682;26;20085;-85
2024/04/08 10:23:14;;;;;;;13.77;9.50;;;;;;;28.87;45.05;100246.88;5312395;26;20013;-86
2024/04/08 10:25:47;;;;;;;11.60;9.55;;;;;;;28.71;44.88;100245.59;5294242;26;20015;-84
2024/04/08 10:28:25;;;;;;;10.15;9.15;;;;;;;28.69;44.55;100234.16;5314154;26;20020;-84
2024/04/08 10:30:51;;;;;;;10.70;7.88;;;;;;;28.91;44.67;100234.00;5298808;26;20045;-85
2024/04/08 10:33:21;;;;;;;11.07;9.00;;;;;;;29.20;44.10;100228.53;5369745;26;20005;-85
2024/04/08 10:35:50;;;;;;;11.57;8.55;;;;;;;29.20;44.12;100221.31;5361767;26;20000;-84
2024/04/08 10:38:19;;;;;;;11.75;8.38;;;;;;;28.87;43.80;100222.63;5337712;26;20060;-84
2024/04/08 10:40:52;;;;;;;12.45;8.35;;;;;;;29.20;42.94;100215.94;5304684;26;20338;-84
2024/04/08 10:43:24;;;;;;;10.82;8.82;;;;;;;29.94;41.82;100226.06;5347079;26;20005;-84
2024/04/08 10:45:52;;;;;;;11.80;8.00;;;;;;;30.52;41.55;100214.91;5317123;26;20001;-86
2024/04/08 10:48:20;;;;;;;9.63;8.35;;;;;;;29.30;43.17;100218.59;5305877;26;20427;-86
2024/04/08 10:50:50;;;;;;;11.23;8.50;;;;;;;29.94;41.48;100212.56;5344731;26;20000;-86
2024/04/08 10:53:21;;;;;;;8.50;7.05;;;;;;;30.21;41.57;100214.38;5289120;26;20464;-84
2024/04/08 10:55:47;;;;;;;12.13;8.63;;;;;;;30.41;40.62;100208.84;5290890;26;20091;-86
2024/04/08 10:58:14;;;;;;;11.90;8.25;;;;;;;30.27;41.09;100212.91;5317718;26;20152;-84
2024/04/08 11:00:44;;;;;;;9.75;7.82;;;;;;;30.22;40.59;100210.69;5336272;26;20324;-84
2024/04/08 11:03:10;;;;;;;13.30;8.73;;;;;;;30.25;40.93;100206.84;5341377;26;20001;-85
2024/04/08 11:05:39;;;;;;;9.95;7.25;;;;;;;31.40;39.40;100209.66;5338543;26;20055;-85
2024/04/08 11:08:06;;;;;;;11.93;7.30;;;;;;;31.45;39.23;100210.03;5308996;26;20112;-86
2024/04/08 11:10:35;;;;;;;11.82;6.82;;;;;;;31.34;37.95;100212.00;5308772;26;20005;-85
2024/04/08 11:13:01;;;;;;;10.68;6.82;;;;;;;31.12;39.70;100209.81;5340768;26;20020;-83
2024/04/08 11:15:31;;;;;;;10.88;6.45;;;;;;;31.45;39.22;100218.97;5330357;26;20501;-85
2024/04/08 11:17:57;;;;;;;6.40;5.65;;;;;;;31.22;39.20;100209.72;5342046;26;20017;-85
2024/04/08 11:20:30;;;;;;;6.40;5.18;;;;;;;32.32;37.59;100212.59;5291307;26;20009;-85
2024/04/08 11:22:55;;;;;;;8.90;5.82;;;;;;;31.50;38.39;100211.22;5340576;26;20016;-83